sensor_id;sensor_type;location;lat;lon;timestamp;pressure;altitude;pressure_sealevel;temperature;humidity
9091;BME280;4581;42.416;25.598;2022-07-15T00:00:03;98349.38;;;21.66;50.04
9091;BME280;4581;42.416;25.598;2022-07-15T00:02:30;98356.28;;;21.69;50.77
9091;BME280;4581;42.416;25.598;2022-07-15T00:04:57;98339.59;;;21.54;51.19
9091;BME280;4581;42.416;25.598;2022-07-15T00:07:24;98345.97;;;21.59;51.77
9091;BME280;4581;42.416;25.598;2022-07-15T00:09:51;98352.69;;;21.68;51.48
9091;BME280;4581;42.416;25.598;2022-07-15T00:12:48;98349.75;;;21.75;51.27
9091;BME280;4581;42.416;25.598;2022-07-15T00:15:19;98346.47;;;21.73;51.15
9091;BME280;4581;42.416;25.598;2022-07-15T00:17:46;98349.75;;;21.75;52.40
9091;BME280;4581;42.416;25.598;2022-07-15T00:20:14;98326.69;;;21.54;52.51
9091;BME280;4581;42.416;25.598;2022-07-15T00:22:44;98344.13;;;21.65;52.84
9091;BME280;4581;42.416;25.598;2022-07-15T00:25:12;98331.41;;;21.59;52.33
9091;BME280;4581;42.416;25.598;2022-07-15T00:28:02;98340.56;;;21.64;52.50
9091;BME280;4581;42.416;25.598;2022-07-15T00:30:34;98324.75;;;21.55;51.74
9091;BME280;4581;42.416;25.598;2022-07-15T00:33:02;98337.81;;;21.64;51.25
9091;BME280;4581;42.416;25.598;2022-07-15T00:35:30;98325.88;;;21.54;52.16
9091;BME280;4581;42.416;25.598;2022-07-15T00:37:58;98329.50;;;21.59;52.21
9091;BME280;4581;42.416;25.598;2022-07-15T00:40:26;98332.56;;;21.63;52.71
9091;BME280;4581;42.416;25.598;2022-07-15T00:42:54;98333.00;;;21.55;52.83
9091;BME280;4581;42.416;25.598;2022-07-15T00:45:22;98338.47;;;21.55;52.71
9091;BME280;4581;42.416;25.598;2022-07-15T00:47:52;98334.34;;;21.52;51.93
9091;BME280;4581;42.416;25.598;2022-07-15T00:50:21;98334.16;;;21.59;50.33
9091;BME280;4581;42.416;25.598;2022-07-15T00:53:00;98326.28;;;21.45;51.97
9091;BME280;4581;42.416;25.598;2022-07-15T00:55:43;98315.63;;;21.32;54.00
9091;BME280;4581;42.416;25.598;2022-07-15T00:58:16;98314.91;;;21.37;52.65
9091;BME280;4581;42.416;25.598;2022-07-15T01:00:45;98326.75;;;21.42;51.11
9091;BME280;4581;42.416;25.598;2022-07-15T01:03:15;98320.28;;;21.32;51.57
9091;BME280;4581;42.416;25.598;2022-07-15T01:05:46;98326.84;;;21.31;52.46
9091;BME280;4581;42.416;25.598;2022-07-15T01:08:14;98308.16;;;21.28;51.65
9091;BME280;4581;42.416;25.598;2022-07-15T01:10:41;98304.94;;;21.14;51.84
9091;BME280;4581;42.416;25.598;2022-07-15T01:13:08;98314.56;;;21.33;52.64
9091;BME280;4581;42.416;25.598;2022-07-15T01:15:35;98302.66;;;21.28;51.91
9091;BME280;4581;42.416;25.598;2022-07-15T01:18:03;98303.28;;;21.30;52.39
9091;BME280;4581;42.416;25.598;2022-07-15T01:20:41;98301.50;;;21.24;52.88
9091;BME280;4581;42.416;25.598;2022-07-15T01:23:10;98285.97;;;21.13;53.90
9091;BME280;4581;42.416;25.598;2022-07-15T01:25:37;98279.06;;;21.10;53.55
9091;BME280;4581;42.416;25.598;2022-07-15T01:28:05;98295.28;;;21.12;53.64
9091;BME280;4581;42.416;25.598;2022-07-15T01:30:36;98294.75;;;21.15;55.05
9091;BME280;4581;42.416;25.598;2022-07-15T01:33:03;98295.28;;;21.12;53.94
9091;BME280;4581;42.416;25.598;2022-07-15T01:35:30;98284.13;;;21.01;54.52
9091;BME280;4581;42.416;25.598;2022-07-15T01:37:58;98279.03;;;20.93;53.94
9091;BME280;4581;42.416;25.598;2022-07-15T01:40:26;98283.34;;;20.89;55.03
9091;BME280;4581;42.416;25.598;2022-07-15T01:42:52;98279.19;;;20.87;55.79
9091;BME280;4581;42.416;25.598;2022-07-15T01:45:19;98270.81;;;20.77;57.33
9091;BME280;4581;42.416;25.598;2022-07-15T01:47:47;98280.28;;;20.86;55.70
9091;BME280;4581;42.416;25.598;2022-07-15T01:50:15;98279.75;;;20.72;55.41
9091;BME280;4581;42.416;25.598;2022-07-15T01:52:42;98273.44;;;20.72;56.05
9091;BME280;4581;42.416;25.598;2022-07-15T01:55:09;98274.94;;;20.79;57.07
9091;BME280;4581;42.416;25.598;2022-07-15T01:57:38;98260.81;;;20.71;56.13
9091;BME280;4581;42.416;25.598;2022-07-15T02:00:07;98275.28;;;20.83;57.32
9091;BME280;4581;42.416;25.598;2022-07-15T02:02:34;98279.59;;;20.79;57.73
9091;BME280;4581;42.416;25.598;2022-07-15T02:05:02;98260.75;;;20.66;58.39
9091;BME280;4581;42.416;25.598;2022-07-15T02:07:29;98248.19;;;20.53;59.08
9091;BME280;4581;42.416;25.598;2022-07-15T02:10:02;98265.13;;;20.67;58.06
9091;BME280;4581;42.416;25.598;2022-07-15T02:12:30;98248.63;;;20.62;59.52
9091;BME280;4581;42.416;25.598;2022-07-15T02:14:56;98272.81;;;20.81;56.97
9091;BME280;4581;42.416;25.598;2022-07-15T02:17:23;98266.16;;;20.77;57.51
9091;BME280;4581;42.416;25.598;2022-07-15T02:19:50;98277.59;;;20.74;57.50
9091;BME280;4581;42.416;25.598;2022-07-15T02:22:16;98278.69;;;20.73;57.81
9091;BME280;4581;42.416;25.598;2022-07-15T02:24:43;98268.88;;;20.61;57.28
9091;BME280;4581;42.416;25.598;2022-07-15T02:27:11;98262.94;;;20.52;58.22
9091;BME280;4581;42.416;25.598;2022-07-15T02:29:38;98274.97;;;20.51;59.49
9091;BME280;4581;42.416;25.598;2022-07-15T02:32:05;98273.06;;;20.51;58.50
9091;BME280;4581;42.416;25.598;2022-07-15T02:34:34;98276.41;;;20.53;58.12
9091;BME280;4581;42.416;25.598;2022-07-15T02:37:01;98278.03;;;20.54;59.00
9091;BME280;4581;42.416;25.598;2022-07-15T02:39:27;98283.69;;;20.48;59.46
9091;BME280;4581;42.416;25.598;2022-07-15T02:41:54;98260.66;;;20.32;59.93
9091;BME280;4581;42.416;25.598;2022-07-15T02:44:21;98278.16;;;20.31;59.08
9091;BME280;4581;42.416;25.598;2022-07-15T02:46:48;98274.94;;;20.23;58.85
9091;BME280;4581;42.416;25.598;2022-07-15T02:49:14;98275.41;;;20.31;60.62
9091;BME280;4581;42.416;25.598;2022-07-15T02:51:41;98277.19;;;20.37;59.92
9091;BME280;4581;42.416;25.598;2022-07-15T02:54:08;98281.34;;;20.40;59.08
9091;BME280;4581;42.416;25.598;2022-07-15T02:56:35;98277.09;;;20.32;58.94
9091;BME280;4581;42.416;25.598;2022-07-15T02:59:02;98270.03;;;20.36;58.59
9091;BME280;4581;42.416;25.598;2022-07-15T03:01:28;98279.00;;;20.32;58.08
9091;BME280;4581;42.416;25.598;2022-07-15T03:03:55;98296.94;;;20.39;59.05
9091;BME280;4581;42.416;25.598;2022-07-15T03:06:23;98281.97;;;20.30;58.69
9091;BME280;4581;42.416;25.598;2022-07-15T03:08:51;98276.47;;;20.30;58.74
9091;BME280;4581;42.416;25.598;2022-07-15T03:11:17;98292.44;;;20.33;57.73
9091;BME280;4581;42.416;25.598;2022-07-15T03:13:44;98292.53;;;20.27;57.51
9091;BME280;4581;42.416;25.598;2022-07-15T03:16:11;98283.16;;;20.23;58.42
9091;BME280;4581;42.416;25.598;2022-07-15T03:18:37;98275.28;;;20.26;58.25
9091;BME280;4581;42.416;25.598;2022-07-15T03:21:04;98297.31;;;20.31;58.94
9091;BME280;4581;42.416;25.598;2022-07-15T03:23:31;98282.91;;;20.24;59.18
9091;BME280;4581;42.416;25.598;2022-07-15T03:25:59;98286.63;;;20.30;58.07
9091;BME280;4581;42.416;25.598;2022-07-15T03:28:26;98277.94;;;20.21;58.56
9091;BME280;4581;42.416;25.598;2022-07-15T03:30:53;98276.38;;;20.25;58.54
9091;BME280;4581;42.416;25.598;2022-07-15T03:33:20;98279.56;;;20.22;59.01
9091;BME280;4581;42.416;25.598;2022-07-15T03:35:46;98267.31;;;20.25;58.70
9091;BME280;4581;42.416;25.598;2022-07-15T03:38:17;98286.38;;;20.31;58.63
9091;BME280;4581;42.416;25.598;2022-07-15T03:40:44;98292.78;;;20.37;59.41
9091;BME280;4581;42.416;25.598;2022-07-15T03:43:11;98279.94;;;20.37;58.91
9091;BME280;4581;42.416;25.598;2022-07-15T03:45:38;98285.16;;;20.39;58.98
9091;BME280;4581;42.416;25.598;2022-07-15T03:48:06;98289.31;;;20.41;59.44
9091;BME280;4581;42.416;25.598;2022-07-15T03:50:33;98297.50;;;20.53;60.01
9091;BME280;4581;42.416;25.598;2022-07-15T03:53:00;98267.41;;;20.41;59.93
9091;BME280;4581;42.416;25.598;2022-07-15T03:55:27;98298.56;;;20.52;60.49
9091;BME280;4581;42.416;25.598;2022-07-15T03:57:54;98295.31;;;20.55;62.01
9091;BME280;4581;42.416;25.598;2022-07-15T04:00:22;98291.19;;;20.52;62.94
9091;BME280;4581;42.416;25.598;2022-07-15T04:02:49;98299.16;;;20.54;62.91
9091;BME280;4581;42.416;25.598;2022-07-15T04:05:15;98296.81;;;20.63;63.74
9091;BME280;4581;42.416;25.598;2022-07-15T04:07:42;98301.50;;;20.79;63.91
9091;BME280;4581;42.416;25.598;2022-07-15T04:10:09;98302.88;;;20.93;63.64
9091;BME280;4581;42.416;25.598;2022-07-15T04:12:35;98294.75;;;20.98;63.12
9091;BME280;4581;42.416;25.598;2022-07-15T04:15:09;98303.25;;;21.13;62.79
9091;BME280;4581;42.416;25.598;2022-07-15T04:17:36;98300.53;;;21.13;62.49
9091;BME280;4581;42.416;25.598;2022-07-15T04:20:03;98295.59;;;21.15;61.87
9091;BME280;4581;42.416;25.598;2022-07-15T04:22:38;98307.00;;;21.24;60.11
9091;BME280;4581;42.416;25.598;2022-07-15T04:25:07;98294.22;;;21.29;59.95
9091;BME280;4581;42.416;25.598;2022-07-15T04:27:39;98307.56;;;21.42;55.42
9091;BME280;4581;42.416;25.598;2022-07-15T04:30:07;98325.69;;;21.60;56.01
9091;BME280;4581;42.416;25.598;2022-07-15T04:32:38;98320.84;;;21.67;54.85
9091;BME280;4581;42.416;25.598;2022-07-15T04:35:08;98324.59;;;21.78;53.99
9091;BME280;4581;42.416;25.598;2022-07-15T04:37:35;98311.00;;;21.88;55.99
9091;BME280;4581;42.416;25.598;2022-07-15T04:40:02;98309.00;;;22.00;54.24
9091;BME280;4581;42.416;25.598;2022-07-15T04:42:29;98310.78;;;22.11;53.05
9091;BME280;4581;42.416;25.598;2022-07-15T04:44:59;98324.53;;;22.33;52.27
9091;BME280;4581;42.416;25.598;2022-07-15T04:47:25;98318.59;;;22.41;52.70
9091;BME280;4581;42.416;25.598;2022-07-15T04:49:52;98311.50;;;22.45;53.08
9091;BME280;4581;42.416;25.598;2022-07-15T04:52:43;98328.56;;;22.69;51.55
9091;BME280;4581;42.416;25.598;2022-07-15T04:55:10;98334.50;;;22.88;49.94
9091;BME280;4581;42.416;25.598;2022-07-15T04:57:37;98310.28;;;22.84;49.54
9091;BME280;4581;42.416;25.598;2022-07-15T05:00:07;98325.13;;;23.10;49.24
9091;BME280;4581;42.416;25.598;2022-07-15T05:02:35;98332.72;;;23.30;49.45
9091;BME280;4581;42.416;25.598;2022-07-15T05:05:02;98306.22;;;23.19;49.08
9091;BME280;4581;42.416;25.598;2022-07-15T05:07:29;98314.31;;;23.36;48.95
9091;BME280;4581;42.416;25.598;2022-07-15T05:09:55;98321.34;;;23.48;48.00
9091;BME280;4581;42.416;25.598;2022-07-15T05:12:22;98315.34;;;23.56;47.82
9091;BME280;4581;42.416;25.598;2022-07-15T05:14:49;98325.06;;;23.69;48.85
9091;BME280;4581;42.416;25.598;2022-07-15T05:17:16;98305.88;;;23.79;51.06
9091;BME280;4581;42.416;25.598;2022-07-15T05:19:42;98336.28;;;23.99;49.07
9091;BME280;4581;42.416;25.598;2022-07-15T05:22:09;98322.13;;;24.28;50.10
9091;BME280;4581;42.416;25.598;2022-07-15T05:24:36;98329.06;;;24.35;47.39
9091;BME280;4581;42.416;25.598;2022-07-15T05:27:03;98325.56;;;24.55;47.00
9091;BME280;4581;42.416;25.598;2022-07-15T05:29:30;98336.13;;;24.78;48.36
9091;BME280;4581;42.416;25.598;2022-07-15T05:31:56;98318.25;;;25.01;48.70
9091;BME280;4581;42.416;25.598;2022-07-15T05:34:23;98311.91;;;25.00;48.03
9091;BME280;4581;42.416;25.598;2022-07-15T05:36:50;98334.88;;;25.56;46.68
9091;BME280;4581;42.416;25.598;2022-07-15T05:39:19;98332.34;;;25.90;44.62
9091;BME280;4581;42.416;25.598;2022-07-15T05:41:46;98328.19;;;26.03;45.48
9091;BME280;4581;42.416;25.598;2022-07-15T05:44:14;98333.94;;;26.32;45.06
9091;BME280;4581;42.416;25.598;2022-07-15T05:46:41;98331.44;;;26.35;46.30
9091;BME280;4581;42.416;25.598;2022-07-15T05:49:08;98327.03;;;26.14;42.10
9091;BME280;4581;42.416;25.598;2022-07-15T05:51:37;98323.75;;;25.97;42.18
9091;BME280;4581;42.416;25.598;2022-07-15T05:54:03;98325.13;;;26.09;40.15
9091;BME280;4581;42.416;25.598;2022-07-15T05:56:30;98320.66;;;26.29;44.25
9091;BME280;4581;42.416;25.598;2022-07-15T05:58:57;98326.66;;;26.51;41.59
9091;BME280;4581;42.416;25.598;2022-07-15T06:01:23;98330.38;;;26.80;45.03
9091;BME280;4581;42.416;25.598;2022-07-15T06:03:50;98332.34;;;26.75;40.28
9091;BME280;4581;42.416;25.598;2022-07-15T06:06:19;98327.81;;;26.99;43.31
9091;BME280;4581;42.416;25.598;2022-07-15T06:08:45;98338.63;;;26.95;39.54
9091;BME280;4581;42.416;25.598;2022-07-15T06:11:12;98317.47;;;27.15;40.71
9091;BME280;4581;42.416;25.598;2022-07-15T06:13:41;98335.59;;;27.36;39.86
9091;BME280;4581;42.416;25.598;2022-07-15T06:16:07;98333.81;;;27.55;42.62
9091;BME280;4581;42.416;25.598;2022-07-15T06:18:34;98340.31;;;27.69;39.85
9091;BME280;4581;42.416;25.598;2022-07-15T06:21:01;98335.34;;;27.66;37.99
9091;BME280;4581;42.416;25.598;2022-07-15T06:23:28;98325.19;;;27.57;38.04
9091;BME280;4581;42.416;25.598;2022-07-15T06:25:55;98323.81;;;27.54;38.47
9091;BME280;4581;42.416;25.598;2022-07-15T06:28:22;98330.00;;;27.75;36.88
9091;BME280;4581;42.416;25.598;2022-07-15T06:30:49;98321.19;;;27.97;39.26
9091;BME280;4581;42.416;25.598;2022-07-15T06:33:16;98331.84;;;28.37;37.89
9091;BME280;4581;42.416;25.598;2022-07-15T06:35:43;98321.56;;;28.61;36.70
9091;BME280;4581;42.416;25.598;2022-07-15T06:38:11;98327.19;;;28.56;35.97
9091;BME280;4581;42.416;25.598;2022-07-15T06:40:38;98323.78;;;28.64;38.95
9091;BME280;4581;42.416;25.598;2022-07-15T06:43:05;98322.53;;;28.94;38.86
9091;BME280;4581;42.416;25.598;2022-07-15T06:45:32;98314.72;;;29.15;38.27
9091;BME280;4581;42.416;25.598;2022-07-15T06:47:58;98319.81;;;29.26;38.47
9091;BME280;4581;42.416;25.598;2022-07-15T06:50:26;98322.38;;;29.60;35.86
9091;BME280;4581;42.416;25.598;2022-07-15T06:52:53;98307.38;;;29.75;35.39
9091;BME280;4581;42.416;25.598;2022-07-15T06:55:20;98326.53;;;29.77;36.21
9091;BME280;4581;42.416;25.598;2022-07-15T06:57:47;98325.00;;;30.16;35.58
9091;BME280;4581;42.416;25.598;2022-07-15T07:00:14;98314.44;;;30.00;34.65
9091;BME280;4581;42.416;25.598;2022-07-15T07:02:42;98314.25;;;30.24;36.83
9091;BME280;4581;42.416;25.598;2022-07-15T07:05:13;98310.03;;;30.26;37.16
9091;BME280;4581;42.416;25.598;2022-07-15T07:07:40;98310.72;;;29.91;35.71
9091;BME280;4581;42.416;25.598;2022-07-15T07:10:07;98308.56;;;30.01;35.02
9091;BME280;4581;42.416;25.598;2022-07-15T07:12:34;98312.97;;;30.48;35.28
9091;BME280;4581;42.416;25.598;2022-07-15T07:15:01;98315.41;;;30.77;35.36
9091;BME280;4581;42.416;25.598;2022-07-15T07:17:29;98307.50;;;30.43;33.32
9091;BME280;4581;42.416;25.598;2022-07-15T07:19:58;98315.03;;;30.56;35.89
9091;BME280;4581;42.416;25.598;2022-07-15T07:22:25;98311.59;;;30.32;33.48
9091;BME280;4581;42.416;25.598;2022-07-15T07:24:54;98303.34;;;30.54;35.98
9091;BME280;4581;42.416;25.598;2022-07-15T07:27:21;98312.00;;;30.80;36.25
9091;BME280;4581;42.416;25.598;2022-07-15T07:29:47;98316.94;;;30.70;33.97
9091;BME280;4581;42.416;25.598;2022-07-15T07:32:14;98304.28;;;30.63;36.91
9091;BME280;4581;42.416;25.598;2022-07-15T07:34:41;98304.38;;;30.58;34.56
9091;BME280;4581;42.416;25.598;2022-07-15T07:37:07;98312.19;;;30.43;36.07
9091;BME280;4581;42.416;25.598;2022-07-15T07:39:35;98317.16;;;30.32;37.08
9091;BME280;4581;42.416;25.598;2022-07-15T07:42:02;98302.97;;;30.47;38.52
9091;BME280;4581;42.416;25.598;2022-07-15T07:44:29;98311.38;;;30.42;33.85
9091;BME280;4581;42.416;25.598;2022-07-15T07:46:56;98325.84;;;30.44;36.19
9091;BME280;4581;42.416;25.598;2022-07-15T07:49:36;98313.03;;;30.16;34.13
9091;BME280;4581;42.416;25.598;2022-07-15T07:52:04;98307.06;;;30.50;39.53
9091;BME280;4581;42.416;25.598;2022-07-15T07:54:31;98327.56;;;30.81;32.96
9091;BME280;4581;42.416;25.598;2022-07-15T07:57:01;98313.03;;;30.71;33.94
9091;BME280;4581;42.416;25.598;2022-07-15T07:59:28;98319.22;;;30.67;34.30
9091;BME280;4581;42.416;25.598;2022-07-15T08:01:55;98304.88;;;30.74;34.79
9091;BME280;4581;42.416;25.598;2022-07-15T08:04:23;98299.91;;;30.85;33.23
9091;BME280;4581;42.416;25.598;2022-07-15T08:06:50;98319.00;;;31.27;33.04
9091;BME280;4581;42.416;25.598;2022-07-15T08:09:18;98301.19;;;30.51;31.16
9091;BME280;4581;42.416;25.598;2022-07-15T08:11:45;98279.34;;;30.04;31.71
9091;BME280;4581;42.416;25.598;2022-07-15T08:14:11;98299.22;;;30.38;32.13
9091;BME280;4581;42.416;25.598;2022-07-15T08:16:38;98287.47;;;30.55;31.50
9091;BME280;4581;42.416;25.598;2022-07-15T08:19:11;98305.25;;;31.08;32.34
9091;BME280;4581;42.416;25.598;2022-07-15T08:21:44;98298.84;;;31.08;32.99
9091;BME280;4581;42.416;25.598;2022-07-15T08:24:11;98303.88;;;31.20;31.73
9091;BME280;4581;42.416;25.598;2022-07-15T08:26:39;98291.03;;;31.32;33.82
9091;BME280;4581;42.416;25.598;2022-07-15T08:29:06;98300.84;;;31.52;31.23
9091;BME280;4581;42.416;25.598;2022-07-15T08:31:34;98305.38;;;31.62;32.55
9091;BME280;4581;42.416;25.598;2022-07-15T08:34:03;98298.63;;;31.85;34.58
9091;BME280;4581;42.416;25.598;2022-07-15T08:36:30;98301.47;;;31.71;28.88
9091;BME280;4581;42.416;25.598;2022-07-15T08:38:57;98302.25;;;31.63;30.93
9091;BME280;4581;42.416;25.598;2022-07-15T08:41:24;98296.84;;;31.89;31.52
9091;BME280;4581;42.416;25.598;2022-07-15T08:43:50;98301.16;;;32.34;30.41
9091;BME280;4581;42.416;25.598;2022-07-15T08:46:23;98294.41;;;32.75;29.27
9091;BME280;4581;42.416;25.598;2022-07-15T08:48:57;98296.09;;;32.93;30.42
9091;BME280;4581;42.416;25.598;2022-07-15T08:51:27;98293.66;;;33.17;28.23
9091;BME280;4581;42.416;25.598;2022-07-15T08:53:54;98283.47;;;32.47;28.88
9091;BME280;4581;42.416;25.598;2022-07-15T08:56:22;98272.06;;;32.75;30.53
9091;BME280;4581;42.416;25.598;2022-07-15T08:58:49;98284.09;;;32.92;29.84
9091;BME280;4581;42.416;25.598;2022-07-15T09:01:26;98276.50;;;33.10;29.63
9091;BME280;4581;42.416;25.598;2022-07-15T09:03:53;98279.84;;;33.21;27.86
9091;BME280;4581;42.416;25.598;2022-07-15T09:06:44;98275.19;;;32.90;27.33
9091;BME280;4581;42.416;25.598;2022-07-15T09:09:32;98281.78;;;31.68;28.41
9091;BME280;4581;42.416;25.598;2022-07-15T09:12:07;98283.66;;;31.81;28.79
9091;BME280;4581;42.416;25.598;2022-07-15T09:14:42;98270.84;;;31.80;28.36
9091;BME280;4581;42.416;25.598;2022-07-15T09:22:28;98275.69;;;32.92;27.33
9091;BME280;4581;42.416;25.598;2022-07-15T09:25:09;98266.50;;;33.26;27.08
9091;BME280;4581;42.416;25.598;2022-07-15T09:27:41;98271.13;;;33.22;25.70
9091;BME280;4581;42.416;25.598;2022-07-15T09:30:32;98271.09;;;32.88;27.09
9091;BME280;4581;42.416;25.598;2022-07-15T09:33:23;98264.03;;;32.90;26.87
9091;BME280;4581;42.416;25.598;2022-07-15T09:36:11;98258.94;;;33.35;25.88
9091;BME280;4581;42.416;25.598;2022-07-15T09:38:47;98264.53;;;33.10;25.59
9091;BME280;4581;42.416;25.598;2022-07-15T09:41:25;98264.22;;;33.28;26.05
9091;BME280;4581;42.416;25.598;2022-07-15T09:44:19;98258.16;;;33.18;27.56
9091;BME280;4581;42.416;25.598;2022-07-15T09:47:00;98255.00;;;33.28;27.37
9091;BME280;4581;42.416;25.598;2022-07-15T09:49:34;98253.19;;;33.40;29.01
9091;BME280;4581;42.416;25.598;2022-07-15T09:52:10;98242.03;;;33.15;29.27
9091;BME280;4581;42.416;25.598;2022-07-15T09:57:08;98245.94;;;33.57;27.85
9091;BME280;4581;42.416;25.598;2022-07-15T09:59:36;98240.88;;;33.42;27.60
9091;BME280;4581;42.416;25.598;2022-07-15T10:02:09;98238.22;;;33.36;26.96
9091;BME280;4581;42.416;25.598;2022-07-15T10:04:36;98239.53;;;33.48;26.56
9091;BME280;4581;42.416;25.598;2022-07-15T10:07:05;98246.25;;;33.72;26.18
9091;BME280;4581;42.416;25.598;2022-07-15T10:09:52;98233.34;;;33.89;26.12
9091;BME280;4581;42.416;25.598;2022-07-15T10:12:21;98221.41;;;34.17;27.87
9091;BME280;4581;42.416;25.598;2022-07-15T10:15:06;98232.31;;;34.40;25.80
9091;BME280;4581;42.416;25.598;2022-07-15T10:29:32;98209.50;;;33.82;26.28
9091;BME280;4581;42.416;25.598;2022-07-15T10:32:01;98214.53;;;34.06;26.88
9091;BME280;4581;42.416;25.598;2022-07-15T10:34:35;98212.50;;;34.45;25.27
9091;BME280;4581;42.416;25.598;2022-07-15T10:37:08;98211.06;;;34.68;26.06
9091;BME280;4581;42.416;25.598;2022-07-15T10:42:16;98208.19;;;34.97;25.25
9091;BME280;4581;42.416;25.598;2022-07-15T10:45:03;98197.75;;;35.06;25.13
9091;BME280;4581;42.416;25.598;2022-07-15T10:47:31;98172.09;;;35.16;24.39
9091;BME280;4581;42.416;25.598;2022-07-15T10:49:58;98182.06;;;35.05;25.38
9091;BME280;4581;42.416;25.598;2022-07-15T10:52:28;98192.75;;;35.45;24.16
9091;BME280;4581;42.416;25.598;2022-07-15T11:03:11;98186.94;;;34.25;25.33
9091;BME280;4581;42.416;25.598;2022-07-15T11:13:46;98167.59;;;35.69;25.59
9091;BME280;4581;42.416;25.598;2022-07-15T11:16:15;98160.06;;;35.61;24.33
9091;BME280;4581;42.416;25.598;2022-07-15T11:18:46;98169.13;;;35.79;24.77
9091;BME280;4581;42.416;25.598;2022-07-15T11:21:15;98173.19;;;35.69;23.96
9091;BME280;4581;42.416;25.598;2022-07-15T11:23:47;98161.41;;;35.31;24.89
9091;BME280;4581;42.416;25.598;2022-07-15T11:26:15;98154.16;;;35.09;24.58
9091;BME280;4581;42.416;25.598;2022-07-15T11:28:51;98167.03;;;35.31;24.47
9091;BME280;4581;42.416;25.598;2022-07-15T11:31:21;98146.63;;;34.89;26.83
9091;BME280;4581;42.416;25.598;2022-07-15T11:33:52;98153.56;;;34.70;26.06
9091;BME280;4581;42.416;25.598;2022-07-15T11:36:20;98157.19;;;35.04;26.44
9091;BME280;4581;42.416;25.598;2022-07-15T11:38:52;98143.00;;;34.88;25.21
9091;BME280;4581;42.416;25.598;2022-07-15T11:41:20;98136.41;;;34.43;27.06
9091;BME280;4581;42.416;25.598;2022-07-15T11:44:09;98145.94;;;33.92;27.78
9091;BME280;4581;42.416;25.598;2022-07-15T11:46:57;98133.84;;;33.15;26.95
9091;BME280;4581;42.416;25.598;2022-07-15T11:49:30;98152.53;;;33.40;25.98
9091;BME280;4581;42.416;25.598;2022-07-15T11:52:04;98149.22;;;33.47;26.69
9091;BME280;4581;42.416;25.598;2022-07-15T11:54:34;98146.56;;;33.51;27.07
9091;BME280;4581;42.416;25.598;2022-07-15T11:57:07;98144.63;;;33.42;26.50
9091;BME280;4581;42.416;25.598;2022-07-15T11:59:34;98136.06;;;33.94;25.90
9091;BME280;4581;42.416;25.598;2022-07-15T12:02:07;98146.28;;;34.90;26.07
9091;BME280;4581;42.416;25.598;2022-07-15T12:04:35;98141.16;;;34.71;25.19
9091;BME280;4581;42.416;25.598;2022-07-15T12:07:03;98137.06;;;34.90;25.05
9091;BME280;4581;42.416;25.598;2022-07-15T12:09:44;98142.72;;;34.81;25.45
9091;BME280;4581;42.416;25.598;2022-07-15T12:12:11;98137.06;;;34.69;24.90
9091;BME280;4581;42.416;25.598;2022-07-15T12:14:39;98119.94;;;34.20;25.09
9091;BME280;4581;42.416;25.598;2022-07-15T12:17:08;98131.34;;;34.07;25.28
9091;BME280;4581;42.416;25.598;2022-07-15T12:19:47;98135.81;;;34.08;26.93
9091;BME280;4581;42.416;25.598;2022-07-15T12:22:16;98133.41;;;33.98;25.23
9091;BME280;4581;42.416;25.598;2022-07-15T12:24:47;98137.56;;;34.21;25.56
9091;BME280;4581;42.416;25.598;2022-07-15T12:27:20;98125.06;;;34.39;27.31
9091;BME280;4581;42.416;25.598;2022-07-15T12:30:05;98137.88;;;34.90;26.91
9091;BME280;4581;42.416;25.598;2022-07-15T12:32:35;98135.69;;;34.54;25.75
9091;BME280;4581;42.416;25.598;2022-07-15T12:35:05;98111.47;;;34.91;25.93
9091;BME280;4581;42.416;25.598;2022-07-15T12:40:07;98129.38;;;35.32;23.73
9091;BME280;4581;42.416;25.598;2022-07-15T12:42:44;98132.16;;;35.19;25.47
9091;BME280;4581;42.416;25.598;2022-07-15T12:45:17;98126.78;;;34.94;24.82
9091;BME280;4581;42.416;25.598;2022-07-15T12:51:15;98128.22;;;34.79;23.86
9091;BME280;4581;42.416;25.598;2022-07-15T12:53:25;98122.78;;;34.83;25.17
9091;BME280;4581;42.416;25.598;2022-07-15T12:55:58;98128.41;;;34.95;25.03
9091;BME280;4581;42.416;25.598;2022-07-15T12:58:29;98132.28;;;35.23;23.28
9091;BME280;4581;42.416;25.598;2022-07-15T13:01:13;98130.19;;;34.99;24.64
9091;BME280;4581;42.416;25.598;2022-07-15T13:03:42;98125.97;;;34.93;24.47
9091;BME280;4581;42.416;25.598;2022-07-15T13:06:09;98103.59;;;34.72;25.89
9091;BME280;4581;42.416;25.598;2022-07-15T13:08:39;98119.22;;;34.94;23.65
9091;BME280;4581;42.416;25.598;2022-07-15T13:11:08;98124.84;;;35.06;25.13
9091;BME280;4581;42.416;25.598;2022-07-15T13:13:58;98117.72;;;35.09;23.65
9091;BME280;4581;42.416;25.598;2022-07-15T13:16:25;98119.38;;;34.77;24.50
9091;BME280;4581;42.416;25.598;2022-07-15T13:18:52;98105.78;;;34.46;26.03
9091;BME280;4581;42.416;25.598;2022-07-15T13:21:20;98117.50;;;34.40;25.23
9091;BME280;4581;42.416;25.598;2022-07-15T13:23:49;98112.41;;;34.12;25.40
9091;BME280;4581;42.416;25.598;2022-07-15T13:26:15;98104.16;;;33.49;25.59
9091;BME280;4581;42.416;25.598;2022-07-15T13:28:46;98114.72;;;33.34;26.90
9091;BME280;4581;42.416;25.598;2022-07-15T13:31:14;98113.59;;;33.27;27.10
9091;BME280;4581;42.416;25.598;2022-07-15T13:33:41;98107.88;;;33.23;27.14
9091;BME280;4581;42.416;25.598;2022-07-15T13:36:20;98102.56;;;33.30;27.38
9091;BME280;4581;42.416;25.598;2022-07-15T13:38:46;98109.44;;;33.50;26.83
9091;BME280;4581;42.416;25.598;2022-07-15T13:41:13;98105.75;;;33.67;25.63
9091;BME280;4581;42.416;25.598;2022-07-15T13:43:40;98098.81;;;33.73;25.87
9091;BME280;4581;42.416;25.598;2022-07-15T13:46:06;98108.75;;;33.91;26.31
9091;BME280;4581;42.416;25.598;2022-07-15T13:48:33;98091.06;;;33.99;26.14
9091;BME280;4581;42.416;25.598;2022-07-15T13:51:00;98088.44;;;33.73;27.03
9091;BME280;4581;42.416;25.598;2022-07-15T13:53:45;98098.97;;;33.76;25.78
9091;BME280;4581;42.416;25.598;2022-07-15T13:56:12;98088.69;;;33.51;25.99
9091;BME280;4581;42.416;25.598;2022-07-15T13:58:39;98114.66;;;33.52;26.04
9091;BME280;4581;42.416;25.598;2022-07-15T14:01:06;98100.94;;;33.38;26.44
9091;BME280;4581;42.416;25.598;2022-07-15T14:03:33;98103.22;;;33.36;26.92
9091;BME280;4581;42.416;25.598;2022-07-15T14:06:03;98112.47;;;33.28;26.47